Time;durP1;ratioP1;P1;durP2;ratioP2;P2;SDS_P1;SDS_P2;PMS_P1;PMS_P2;Temp;Humidity;BMP_temperature;BMP_pressure;BME280_temperature;BME280_humidity;BME280_pressure;Samples;Min_cycle;Max_cycle;Signal;HPM_P1;HPM_P2
2022/01/16 00:00:18;;;;;;;12.40;8.60;;;2.60;99.90;;;;;;5051150;28;20478;-68
2022/01/16 00:05:31;;;;;;;14.67;8.60;;;2.50;99.90;;;;;;5051276;28;20509;-68
2022/01/16 00:07:59;;;;;;;15.47;9.40;;;2.60;99.90;;;;;;5051510;28;20460;-68
2022/01/16 00:10:27;;;;;;;12.87;8.20;;;2.40;99.90;;;;;;5051209;28;20499;-67
2022/01/16 00:12:58;;;;;;;15.07;9.30;;;2.40;99.90;;;;;;5051132;28;20556;-68
2022/01/16 00:15:27;;;;;;;16.57;10.40;;;2.50;99.90;;;;;;5050733;28;20461;-68
2022/01/16 00:17:59;;;;;;;12.90;7.90;;;2.50;99.90;;;;;;5050861;28;20446;-68
2022/01/16 00:20:27;;;;;;;12.63;7.60;;;2.60;99.90;;;;;;5050091;28;20512;-68
2022/01/16 00:22:55;;;;;;;14.77;8.77;;;2.60;99.90;;;;;;5050679;28;20468;-68
2022/01/16 00:25:22;;;;;;;16.30;9.13;;;2.60;99.90;;;;;;5051455;28;20537;-68
2022/01/16 00:27:49;;;;;;;15.70;9.93;;;2.50;99.90;;;;;;5050871;28;20886;-67
2022/01/16 00:30:17;;;;;;;15.93;8.53;;;2.50;99.90;;;;;;5051062;28;20486;-68
2022/01/16 00:32:46;;;;;;;14.67;9.10;;;2.40;99.90;;;;;;5051145;28;20460;-68
2022/01/16 00:35:13;;;;;;;15.00;9.07;;;2.40;99.90;;;;;;5050868;28;20461;-67
2022/01/16 00:37:41;;;;;;;15.43;9.60;;;2.40;99.90;;;;;;5051101;28;20908;-68
2022/01/16 00:40:10;;;;;;;17.60;9.70;;;2.40;99.90;;;;;;5050978;28;21049;-68
2022/01/16 00:42:37;;;;;;;14.30;10.13;;;2.50;99.90;;;;;;5050760;28;20452;-67
2022/01/16 00:45:06;;;;;;;15.73;9.77;;;2.60;99.90;;;;;;5050523;28;20453;-68
2022/01/16 00:47:33;;;;;;;15.57;9.30;;;2.70;99.90;;;;;;5050843;28;20811;-68
2022/01/16 00:50:01;;;;;;;19.00;9.70;;;2.60;99.90;;;;;;5050654;28;20493;-66
2022/01/16 00:52:28;;;;;;;16.37;10.13;;;2.60;99.90;;;;;;5050549;28;20464;-67
2022/01/16 00:54:58;;;;;;;14.60;10.17;;;2.70;99.90;;;;;;5051014;28;20457;-67
2022/01/16 00:57:27;;;;;;;14.20;10.13;;;2.80;99.90;;;;;;5050661;28;20448;-68
2022/01/16 00:59:53;;;;;;;15.83;11.00;;;2.80;99.90;;;;;;5050772;28;20539;-67
2022/01/16 01:02:21;;;;;;;16.27;11.43;;;2.90;99.90;;;;;;5049509;28;20488;-68
2022/01/16 01:04:48;;;;;;;15.90;11.23;;;2.80;99.90;;;;;;5050366;28;20465;-68
2022/01/16 01:07:17;;;;;;;15.70;9.97;;;2.80;99.90;;;;;;5050612;28;20506;-68
2022/01/16 01:09:45;;;;;;;17.73;10.00;;;2.80;99.90;;;;;;5050189;28;20453;-68
2022/01/16 01:12:24;;;;;;;18.17;9.10;;;2.90;99.90;;;;;;5050098;28;20453;-68
2022/01/16 01:15:05;;;;;;;16.20;10.10;;;3.00;99.90;;;;;;5049975;28;21297;-68
2022/01/16 01:17:36;;;;;;;19.63;11.80;;;3.00;99.90;;;;;;5050087;28;20939;-68
2022/01/16 01:20:04;;;;;;;15.10;10.00;;;2.90;99.90;;;;;;5049787;28;20469;-68
2022/01/16 01:22:33;;;;;;;18.27;10.87;;;2.90;99.90;;;;;;5049983;28;20460;-68
2022/01/16 01:25:00;;;;;;;14.80;9.90;;;3.10;99.90;;;;;;5049939;28;20931;-69
2022/01/16 01:27:31;;;;;;;13.97;8.90;;;3.20;99.90;;;;;;5050013;28;20450;-68
2022/01/16 01:30:02;;;;;;;17.93;9.20;;;3.20;99.90;;;;;;5049922;28;20521;-68
2022/01/16 01:32:30;;;;;;;18.47;10.27;;;3.20;99.90;;;;;;5049329;28;20542;-68
2022/01/16 01:34:57;;;;;;;14.47;8.90;;;3.30;99.90;;;;;;5049966;28;20810;-68
2022/01/16 01:37:24;;;;;;;17.13;10.77;;;3.40;99.90;;;;;;5049731;28;20462;-68
2022/01/16 01:39:54;;;;;;;12.53;9.50;;;3.40;99.90;;;;;;5049876;28;20470;-68
2022/01/16 01:42:23;;;;;;;15.97;10.63;;;3.40;99.90;;;;;;5049582;28;20945;-68
2022/01/16 01:53:03;;;;;;;14.17;9.33;;;3.60;99.90;;;;;;5049174;28;20445;-68
2022/01/16 01:55:32;;;;;;;13.33;8.50;;;3.50;99.90;;;;;;5049641;28;20452;-68
2022/01/16 01:57:59;;;;;;;12.13;8.67;;;3.50;99.90;;;;;;5049232;28;20478;-68
2022/01/16 02:00:26;;;;;;;14.17;8.00;;;3.50;99.90;;;;;;5049069;28;20485;-68
2022/01/16 02:03:11;;;;;;;12.90;8.03;;;3.60;99.90;;;;;;5049119;28;20484;-68
2022/01/16 02:05:38;;;;;;;14.53;8.77;;;3.60;99.90;;;;;;5049372;28;20934;-68
2022/01/16 02:08:07;;;;;;;13.10;8.70;;;3.40;99.90;;;;;;5049470;28;20510;-68
2022/01/16 02:10:37;;;;;;;17.30;8.90;;;3.40;99.90;;;;;;5049363;28;20889;-68
2022/01/16 02:13:07;;;;;;;15.17;8.80;;;3.40;99.90;;;;;;5049321;28;20594;-69
2022/01/16 02:27:57;;;;;;;14.80;9.37;;;3.30;99.90;;;;;;5049405;28;20529;-69
2022/01/16 02:35:10;;;;;;;13.93;8.33;;;3.40;99.90;;;;;;4989979;28;20872;-68
2022/01/16 02:37:37;;;;;;;13.33;9.10;;;3.50;99.90;;;;;;5049221;28;20454;-68
2022/01/16 02:40:15;;;;;;;15.17;9.93;;;3.40;99.90;;;;;;5048994;28;20481;-68
2022/01/16 02:42:48;;;;;;;15.00;10.40;;;3.30;99.90;;;;;;5050482;28;20480;-68
2022/01/16 02:45:28;;;;;;;18.80;11.07;;;3.30;99.90;;;;;;5053243;28;20449;-68
2022/01/16 02:47:56;;;;;;;15.00;10.20;;;3.20;99.90;;;;;;5053087;28;21080;-68
2022/01/16 02:50:24;;;;;;;22.60;10.83;;;3.10;99.90;;;;;;5052719;28;20497;-68
2022/01/16 02:52:51;;;;;;;14.20;10.70;;;3.00;99.90;;;;;;5052940;28;20460;-68
2022/01/16 02:55:21;;;;;;;17.37;12.03;;;2.80;99.90;;;;;;5052665;28;20557;-68
2022/01/16 02:57:49;;;;;;;14.50;11.17;;;2.60;99.90;;;;;;5053097;28;21112;-68
2022/01/16 03:00:17;;;;;;;15.47;11.33;;;2.60;99.90;;;;;;5052571;28;20470;-67
2022/01/16 03:02:44;;;;;;;16.10;11.33;;;2.50;99.90;;;;;;5052115;28;20504;-67
2022/01/16 03:05:13;;;;;;;15.50;10.50;;;2.40;99.90;;;;;;5052549;28;20480;-68
2022/01/16 03:07:41;;;;;;;15.30;10.50;;;2.40;99.90;;;;;;5052620;28;20927;-67
2022/01/16 03:12:54;;;;;;;17.70;11.03;;;2.60;99.90;;;;;;5007795;28;20435;-67
2022/01/16 03:15:22;;;;;;;13.90;10.00;;;2.70;99.90;;;;;;5052613;28;20837;-67
2022/01/16 03:23:21;;;;;;;16.73;10.63;;;2.50;99.90;;;;;;5052081;28;20489;-67
2022/01/16 03:25:49;;;;;;;16.60;9.47;;;2.70;99.90;;;;;;5052071;28;20445;-68
2022/01/16 03:28:19;;;;;;;14.57;10.30;;;2.80;99.90;;;;;;5052392;28;20545;-67
2022/01/16 03:30:46;;;;;;;16.70;10.40;;;2.90;99.90;;;;;;5052218;28;21116;-67
2022/01/16 03:33:14;;;;;;;16.20;10.50;;;3.00;99.90;;;;;;5052084;28;20454;-68
2022/01/16 03:35:41;;;;;;;16.20;11.20;;;2.90;99.90;;;;;;5052389;28;20456;-68
2022/01/16 03:38:08;;;;;;;14.73;10.37;;;2.80;99.90;;;;;;5052243;28;20497;-68
2022/01/16 03:40:35;;;;;;;16.90;11.33;;;2.70;99.90;;;;;;5051668;28;20525;-68
2022/01/16 03:43:12;;;;;;;17.00;10.63;;;2.70;99.90;;;;;;5051934;28;20454;-67
2022/01/16 03:45:41;;;;;;;23.30;13.10;;;2.70;99.90;;;;;;5052103;28;20448;-68
2022/01/16 03:48:08;;;;;;;18.40;11.50;;;2.60;99.90;;;;;;5051951;28;20786;-68
2022/01/16 03:50:35;;;;;;;12.70;9.67;;;2.50;99.90;;;;;;5034059;28;20540;-68
2022/01/16 03:53:03;;;;;;;16.77;11.10;;;2.60;99.90;;;;;;5051743;28;20472;-67
2022/01/16 03:55:30;;;;;;;17.00;10.63;;;2.60;99.90;;;;;;5050610;28;20808;-68
2022/01/16 03:57:58;;;;;;;14.40;9.60;;;2.60;99.90;;;;;;5051982;28;20468;-67
2022/01/16 04:00:25;;;;;;;16.83;10.13;;;2.70;99.90;;;;;;5051647;28;20560;-68
2022/01/16 04:02:53;;;;;;;16.87;11.93;;;2.60;99.90;;;;;;5050901;28;20551;-68
2022/01/16 04:05:20;;;;;;;18.13;10.30;;;2.60;99.90;;;;;;5051591;28;20479;-68
2022/01/16 04:07:48;;;;;;;14.40;10.93;;;2.70;99.90;;;;;;5051502;28;20947;-67
2022/01/16 04:10:15;;;;;;;18.63;12.10;;;2.70;99.90;;;;;;5051317;28;20477;-68
2022/01/16 04:12:45;;;;;;;14.40;10.10;;;2.90;99.90;;;;;;5051366;28;20488;-68
2022/01/16 04:17:58;;;;;;;15.30;9.33;;;3.00;99.90;;;;;;5051166;28;20435;-68
2022/01/16 04:20:25;;;;;;;17.00;9.67;;;3.10;99.90;;;;;;5051311;28;20523;-67
2022/01/16 04:22:52;;;;;;;16.60;11.20;;;3.00;99.90;;;;;;5050838;28;20525;-68
2022/01/16 04:25:19;;;;;;;17.23;12.07;;;3.00;99.90;;;;;;5051312;28;20472;-67
2022/01/16 04:27:46;;;;;;;15.57;11.37;;;3.00;99.90;;;;;;5051262;28;20458;-67
2022/01/16 04:30:14;;;;;;;15.43;9.70;;;3.00;99.90;;;;;;5051268;28;20462;-68
2022/01/16 04:32:41;;;;;;;15.90;10.30;;;3.00;99.90;;;;;;5050646;28;20579;-68
2022/01/16 04:35:11;;;;;;;16.30;11.23;;;3.00;99.90;;;;;;5051142;28;20451;-68
2022/01/16 04:37:39;;;;;;;17.90;10.83;;;2.90;99.90;;;;;;5051023;28;20458;-68
2022/01/16 04:40:07;;;;;;;18.60;11.73;;;3.00;99.90;;;;;;5050837;28;20520;-68
2022/01/16 04:45:18;;;;;;;16.63;10.47;;;3.40;99.90;;;;;;5050749;28;20482;-68
2022/01/16 04:47:47;;;;;;;15.53;10.73;;;3.20;99.90;;;;;;5050787;28;20452;-68
2022/01/16 04:50:16;;;;;;;14.77;10.03;;;3.10;99.90;;;;;;5050793;28;20965;-67
2022/01/16 04:52:45;;;;;;;20.27;11.47;;;3.30;99.90;;;;;;5050929;28;20892;-68
2022/01/16 04:55:14;;;;;;;29.33;19.33;;;3.50;99.90;;;;;;5050461;28;20892;-68
2022/01/16 04:57:42;;;;;;;32.97;23.30;;;3.60;99.90;;;;;;5050658;28;20507;-68
2022/01/16 05:00:13;;;;;;;32.13;22.77;;;3.70;99.90;;;;;;5050241;28;20490;-68
2022/01/16 05:02:40;;;;;;;35.50;22.37;;;3.90;99.90;;;;;;5050170;28;20986;-68
2022/01/16 05:05:10;;;;;;;38.63;26.40;;;3.90;99.90;;;;;;5050213;28;20968;-68
2022/01/16 05:07:38;;;;;;;37.37;23.87;;;3.80;99.90;;;;;;5050393;28;20458;-68
2022/01/16 05:10:07;;;;;;;35.93;23.30;;;3.80;99.90;;;;;;5050129;28;20874;-68
2022/01/16 05:12:36;;;;;;;31.03;23.50;;;3.80;99.90;;;;;;5050471;28;20482;-68
2022/01/16 05:17:49;;;;;;;32.07;22.80;;;3.90;99.90;;;;;;5050043;28;20448;-67
2022/01/16 05:20:16;;;;;;;37.57;21.43;;;4.00;99.90;;;;;;5050063;28;20484;-68
2022/01/16 05:22:44;;;;;;;31.53;22.33;;;3.90;99.90;;;;;;5049871;28;20464;-67
2022/01/16 05:25:14;;;;;;;32.13;22.13;;;3.80;99.90;;;;;;5049858;28;20497;-67
2022/01/16 05:27:42;;;;;;;34.43;21.93;;;3.80;99.90;;;;;;5050098;28;20447;-67
2022/01/16 05:30:09;;;;;;;31.90;22.43;;;3.80;99.90;;;;;;5050238;28;20950;-67
2022/01/16 05:32:36;;;;;;;32.17;21.47;;;4.00;99.90;;;;;;5049892;28;20923;-67
2022/01/16 05:35:05;;;;;;;32.50;20.70;;;3.90;99.90;;;;;;5049819;28;20947;-67
2022/01/16 05:37:32;;;;;;;32.47;21.47;;;4.00;99.90;;;;;;5049939;28;20493;-67
2022/01/16 05:40:00;;;;;;;30.83;22.63;;;3.90;99.90;;;;;;5049887;28;20947;-67
2022/01/16 05:42:27;;;;;;;25.17;20.10;;;3.70;99.90;;;;;;5049924;28;20476;-67
2022/01/16 05:44:54;;;;;;;34.93;21.67;;;3.90;99.90;;;;;;5049517;28;20504;-66
2022/01/16 05:47:21;;;;;;;39.90;21.37;;;4.00;99.90;;;;;;5049304;28;20458;-66
2022/01/16 05:49:48;;;;;;;29.67;21.47;;;4.10;99.90;;;;;;5049610;28;20531;-68
2022/01/16 05:52:15;;;;;;;32.10;22.67;;;4.00;99.90;;;;;;5049604;28;20488;-67
2022/01/16 05:54:42;;;;;;;32.20;22.80;;;3.90;99.90;;;;;;5049349;28;20463;-69
2022/01/16 05:57:12;;;;;;;29.83;20.40;;;4.00;99.90;;;;;;5049819;28;20458;-69
2022/01/16 05:59:39;;;;;;;29.33;19.77;;;4.10;99.90;;;;;;5049691;28;20471;-67
2022/01/16 06:02:06;;;;;;;30.50;20.87;;;4.10;99.90;;;;;;5048886;28;20480;-66
2022/01/16 06:04:33;;;;;;;29.40;20.63;;;4.10;99.90;;;;;;5049542;28;20862;-68
2022/01/16 06:07:01;;;;;;;24.33;17.50;;;3.90;99.90;;;;;;5049611;28;20452;-68
2022/01/16 06:09:28;;;;;;;27.27;19.70;;;3.80;99.90;;;;;;5049560;28;20450;-69
2022/01/16 06:11:55;;;;;;;26.77;18.47;;;4.00;99.90;;;;;;5049442;28;20495;-68
2022/01/16 06:14:24;;;;;;;28.47;19.97;;;4.00;99.90;;;;;;5049509;28;20452;-67
2022/01/16 06:16:52;;;;;;;31.40;22.70;;;3.80;99.90;;;;;;5048828;28;20477;-68
2022/01/16 06:19:19;;;;;;;39.13;27.57;;;3.90;99.90;;;;;;5049097;28;20462;-68
2022/01/16 06:21:46;;;;;;;46.20;29.37;;;3.90;99.90;;;;;;5049335;28;20542;-68
2022/01/16 06:24:14;;;;;;;40.10;28.70;;;4.00;99.90;;;;;;5049029;28;20460;-69
2022/01/16 06:26:41;;;;;;;37.47;27.80;;;4.10;99.90;;;;;;5049078;28;20453;-68
2022/01/16 06:29:08;;;;;;;45.17;30.60;;;4.10;99.90;;;;;;5048794;28;20549;-68
2022/01/16 06:31:37;;;;;;;42.10;29.47;;;4.10;99.90;;;;;;5048800;28;20563;-68
2022/01/16 06:34:06;;;;;;;43.60;30.00;;;4.10;99.90;;;;;;5048996;28;20515;-67
2022/01/16 06:36:35;;;;;;;40.37;28.77;;;4.10;99.90;;;;;;5049123;28;20458;-72
2022/01/16 06:39:03;;;;;;;37.77;26.30;;;4.20;99.90;;;;;;5049316;28;20545;-71
2022/01/16 06:41:30;;;;;;;34.47;24.70;;;4.30;99.90;;;;;;5049153;28;20478;-73
2022/01/16 06:43:57;;;;;;;38.90;25.63;;;4.30;99.90;;;;;;5048900;28;20460;-73
2022/01/16 06:46:24;;;;;;;32.50;21.97;;;4.30;99.90;;;;;;5048734;28;20463;-72
2022/01/16 06:48:53;;;;;;;29.17;20.97;;;4.20;99.90;;;;;;5048733;28;20469;-72
2022/01/16 06:51:21;;;;;;;31.20;23.83;;;4.30;99.90;;;;;;5049079;28;20484;-74
2022/01/16 06:53:53;;;;;;;32.60;23.87;;;4.00;99.90;;;;;;5048919;28;20518;-76
2022/01/16 06:56:21;;;;;;;31.77;23.50;;;3.90;99.90;;;;;;5048596;28;20460;-70
2022/01/16 06:58:48;;;;;;;33.10;23.77;;;4.10;99.90;;;;;;5048917;28;20503;-69
2022/01/16 07:01:15;;;;;;;32.53;23.90;;;4.30;99.90;;;;;;5048023;28;20987;-69
2022/01/16 07:03:43;;;;;;;40.47;23.37;;;4.30;99.90;;;;;;5048989;28;20802;-66
2022/01/16 07:06:11;;;;;;;34.10;23.83;;;4.10;99.90;;;;;;5048897;28;20458;-66
2022/01/16 07:08:38;;;;;;;32.63;23.03;;;3.80;99.90;;;;;;5048815;28;20449;-67
2022/01/16 07:11:05;;;;;;;39.40;25.40;;;3.80;99.90;;;;;;5048462;28;20965;-66
2022/01/16 07:13:32;;;;;;;32.30;23.23;;;3.90;99.90;;;;;;5048535;28;20539;-69
2022/01/16 07:15:59;;;;;;;31.30;22.97;;;4.00;99.90;;;;;;5048579;28;20455;-69
2022/01/16 07:18:27;;;;;;;34.20;22.40;;;3.80;99.90;;;;;;5048798;28;20462;-68
2022/01/16 07:20:55;;;;;;;35.03;22.57;;;3.70;99.90;;;;;;5048808;28;20545;-71
2022/01/16 07:23:25;;;;;;;28.27;21.83;;;4.10;99.90;;;;;;5048164;28;20511;-68
2022/01/16 07:25:53;;;;;;;34.70;21.17;;;4.30;99.90;;;;;;5048428;28;20458;-69
2022/01/16 07:28:21;;;;;;;29.67;19.47;;;4.40;99.90;;;;;;5048644;28;20546;-69
2022/01/16 07:30:49;;;;;;;25.40;19.77;;;4.60;99.90;;;;;;5051744;28;20473;-70
2022/01/16 07:33:17;;;;;;;33.33;22.30;;;4.80;99.90;;;;;;5052413;28;20852;-70
2022/01/16 07:35:44;;;;;;;29.97;19.47;;;4.50;99.90;;;;;;5052231;28;21016;-66
2022/01/16 07:38:11;;;;;;;28.20;20.13;;;4.50;99.90;;;;;;5052392;28;20828;-69
2022/01/16 07:40:39;;;;;;;23.70;17.67;;;4.40;99.90;;;;;;5051999;28;20934;-70
2022/01/16 07:43:07;;;;;;;29.27;20.00;;;4.70;99.90;;;;;;5052075;28;20478;-68
2022/01/16 07:45:37;;;;;;;30.27;21.83;;;4.60;99.90;;;;;;5051938;28;20454;-72
2022/01/16 07:48:05;;;;;;;30.40;20.10;;;4.90;99.90;;;;;;5051981;28;20458;-71
2022/01/16 07:50:33;;;;;;;28.23;19.73;;;4.70;99.90;;;;;;5051778;28;20531;-71
2022/01/16 07:53:00;;;;;;;34.93;19.43;;;4.90;99.90;;;;;;5033629;28;20794;-69
2022/01/16 07:55:27;;;;;;;32.10;21.33;;;5.10;99.90;;;;;;5051880;28;20459;-69
2022/01/16 07:57:58;;;;;;;31.93;21.10;;;5.20;99.90;;;;;;5051557;28;20461;-71
2022/01/16 08:00:26;;;;;;;28.00;19.57;;;5.10;99.90;;;;;;5051148;28;20555;-70
2022/01/16 08:02:54;;;;;;;25.83;19.40;;;4.90;99.90;;;;;;5051112;28;20482;-69
2022/01/16 08:05:22;;;;;;;31.53;20.63;;;5.10;99.90;;;;;;5051273;28;20457;-69
2022/01/16 08:07:50;;;;;;;25.83;17.57;;;5.30;99.90;;;;;;5051540;28;20473;-75
2022/01/16 08:10:17;;;;;;;35.30;19.50;;;5.10;99.90;;;;;;5051774;28;20469;-74
2022/01/16 08:12:44;;;;;;;29.40;17.53;;;5.30;99.90;;;;;;5053160;28;21075;-73
2022/01/16 08:15:13;;;;;;;29.97;19.17;;;5.50;99.90;;;;;;5051659;28;20442;-72
2022/01/16 08:17:40;;;;;;;36.07;20.63;;;6.00;99.90;;;;;;5051063;28;20465;-76
2022/01/16 08:20:09;;;;;;;22.57;16.20;;;6.10;99.90;;;;;;5051237;28;20966;-76
2022/01/16 08:22:36;;;;;;;21.80;14.93;;;5.80;99.90;;;;;;5051032;28;20953;-73
2022/01/16 08:25:04;;;;;;;20.10;15.30;;;5.60;99.90;;;;;;5051719;28;20462;-71
2022/01/16 08:27:31;;;;;;;23.87;17.00;;;5.60;99.90;;;;;;5051293;28;20469;-76
2022/01/16 08:29:59;;;;;;;29.63;17.93;;;5.80;99.90;;;;;;5051023;28;20478;-72
2022/01/16 08:32:27;;;;;;;22.53;17.57;;;5.60;99.90;;;;;;5051179;28;21033;-75
2022/01/16 08:34:54;;;;;;;24.23;18.80;;;5.50;99.90;;;;;;5051391;28;20469;-76
2022/01/16 08:37:21;;;;;;;25.67;17.33;;;5.60;99.90;;;;;;5050923;28;20794;-78
2022/01/16 08:39:50;;;;;;;23.73;15.53;;;5.70;99.90;;;;;;5050863;28;20462;-73
2022/01/16 08:42:17;;;;;;;26.30;18.90;;;5.80;99.90;;;;;;5051018;28;20457;-71
2022/01/16 08:44:44;;;;;;;24.83;18.73;;;5.90;99.90;;;;;;5050433;28;20567;-75
2022/01/16 08:47:12;;;;;;;24.53;17.73;;;6.00;99.90;;;;;;5050670;28;20450;-74
2022/01/16 08:49:40;;;;;;;23.50;17.90;;;6.20;99.90;;;;;;5050842;28;20877;-75
2022/01/16 08:52:08;;;;;;;29.63;18.30;;;6.70;99.90;;;;;;5050109;28;20455;-74
2022/01/16 08:54:35;;;;;;;28.30;18.73;;;6.80;99.90;;;;;;5050309;28;20525;-75
2022/01/16 08:57:02;;;;;;;28.20;18.33;;;7.30;99.90;;;;;;5050818;28;20834;-75
2022/01/16 08:59:30;;;;;;;24.93;17.67;;;7.60;99.90;;;;;;5050177;28;20464;-75
2022/01/16 09:01:57;;;;;;;29.10;18.97;;;7.60;99.90;;;;;;5050121;28;20548;-76
2022/01/16 09:04:24;;;;;;;24.83;17.27;;;7.80;99.30;;;;;;5050666;28;20612;-73
2022/01/16 09:06:53;;;;;;;24.23;18.00;;;8.10;99.30;;;;;;5050688;28;20517;-73
2022/01/16 09:09:20;;;;;;;30.00;20.23;;;8.40;98.20;;;;;;5050548;28;20860;-75
2022/01/16 09:11:47;;;;;;;25.57;19.17;;;8.70;96.90;;;;;;5050514;28;20473;-75
2022/01/16 09:14:14;;;;;;;22.07;17.67;;;8.50;96.20;;;;;;5050002;28;20494;-71
2022/01/16 09:16:42;;;;;;;31.63;18.43;;;8.30;96.40;;;;;;5050167;28;20539;-74
2022/01/16 09:19:09;;;;;;;31.67;20.37;;;8.20;95.60;;;;;;5050489;28;20479;-74
2022/01/16 09:21:36;;;;;;;26.57;19.80;;;8.30;95.40;;;;;;5050293;28;20587;-74
2022/01/16 09:24:06;;;;;;;26.53;19.07;;;8.30;95.10;;;;;;5050232;28;20571;-77
2022/01/16 09:26:33;;;;;;;24.83;17.53;;;8.40;94.00;;;;;;5032086;28;20873;-76
2022/01/16 09:29:00;;;;;;;22.80;17.77;;;8.30;94.90;;;;;;5049735;28;20442;-76
2022/01/16 09:31:27;;;;;;;25.20;17.77;;;8.40;94.70;;;;;;5050024;28;20874;-72
2022/01/16 09:33:56;;;;;;;23.60;17.40;;;8.80;94.80;;;;;;5050020;28;20554;-75
2022/01/16 09:36:23;;;;;;;29.80;18.73;;;8.90;94.60;;;;;;5049910;28;20946;-73
2022/01/16 09:38:50;;;;;;;31.43;18.97;;;9.30;93.50;;;;;;5049620;28;20465;-77
2022/01/16 09:41:18;;;;;;;22.03;17.40;;;9.60;92.20;;;;;;5049632;28;20487;-74
2022/01/16 09:43:47;;;;;;;21.53;17.73;;;9.70;91.70;;;;;;5049711;28;20464;-78
2022/01/16 09:46:14;;;;;;;23.30;16.80;;;9.80;91.90;;;;;;5049914;28;20453;-74
2022/01/16 09:48:41;;;;;;;22.27;16.97;;;9.80;91.20;;;;;;5049884;28;20987;-75
2022/01/16 09:51:08;;;;;;;21.27;16.50;;;9.90;90.50;;;;;;5049305;28;20481;-73
2022/01/16 09:53:35;;;;;;;21.70;14.87;;;9.80;90.40;;;;;;5049032;28;20492;-78
2022/01/16 09:56:11;;;;;;;21.30;15.07;;;10.00;87.40;;;;;;5049495;28;20862;-76
2022/01/16 09:58:41;;;;;;;18.70;12.70;;;10.10;85.80;;;;;;5049349;28;20548;-74
2022/01/16 10:01:08;;;;;;;16.40;13.17;;;10.20;86.80;;;;;;5049366;28;20470;-76
2022/01/16 10:03:37;;;;;;;15.60;11.80;;;10.40;85.80;;;;;;5049446;28;20454;-77
2022/01/16 10:06:13;;;;;;;16.60;11.90;;;10.20;86.50;;;;;;5048986;28;20466;-76
2022/01/16 10:08:42;;;;;;;17.63;11.83;;;10.10;86.20;;;;;;5049324;28;20504;-77
2022/01/16 10:11:23;;;;;;;14.03;10.60;;;10.10;83.50;;;;;;5049313;28;20528;-78
2022/01/16 10:13:59;;;;;;;19.60;11.77;;;9.90;86.20;;;;;;5049240;28;20543;-75
2022/01/16 10:16:28;;;;;;;14.87;10.70;;;9.90;86.20;;;;;;5049112;28;20497;-76
2022/01/16 10:18:56;;;;;;;19.47;12.73;;;10.00;85.40;;;;;;5049125;28;20453;-74
2022/01/16 10:21:35;;;;;;;15.60;11.20;;;10.30;86.00;;;;;;5049209;28;20477;-75
2022/01/16 10:24:23;;;;;;;15.97;10.93;;;10.30;81.70;;;;;;5049157;28;20465;-73
2022/01/16 10:27:11;;;;;;;16.33;10.87;;;10.10;81.80;;;;;;5048466;28;20508;-73
2022/01/16 10:29:41;;;;;;;13.70;10.47;;;10.20;82.10;;;;;;5049120;28;20485;-74
2022/01/16 10:32:14;;;;;;;16.50;11.47;;;10.40;81.00;;;;;;5049110;28;20445;-77
2022/01/16 10:34:42;;;;;;;15.80;12.23;;;10.30;81.10;;;;;;5049162;28;20576;-71
2022/01/16 10:37:24;;;;;;;14.50;10.40;;;10.40;80.90;;;;;;5049405;28;20457;-72
2022/01/16 10:39:57;;;;;;;14.97;10.90;;;10.60;82.30;;;;;;5049038;28;20482;-77
2022/01/16 10:42:25;;;;;;;16.73;11.60;;;10.80;81.80;;;;;;5048887;28;20449;-70
2022/01/16 10:44:59;;;;;;;15.90;11.43;;;11.20;79.50;;;;;;5049214;28;20533;-72
2022/01/16 10:47:29;;;;;;;15.97;11.97;;;11.50;80.20;;;;;;5048398;28;20453;-76
2022/01/16 10:50:01;;;;;;;14.37;12.27;;;11.90;77.10;;;;;;5048834;28;20453;-73
2022/01/16 10:52:28;;;;;;;16.10;12.80;;;12.30;74.70;;;;;;5049009;28;20470;-76
2022/01/16 10:54:55;;;;;;;14.87;12.13;;;12.40;74.00;;;;;;5048930;28;20473;-71
2022/01/16 10:57:25;;;;;;;15.53;12.70;;;12.30;71.90;;;;;;5048972;28;20450;-73
2022/01/16 11:00:08;;;;;;;15.60;12.17;;;12.20;71.60;;;;;;5048993;28;20449;-73
2022/01/16 11:02:35;;;;;;;19.20;11.90;;;12.00;73.90;;;;;;5048738;28;20584;-74
2022/01/16 11:05:10;;;;;;;15.20;12.27;;;12.30;73.90;;;;;;5052184;28;20450;-76
2022/01/16 11:07:37;;;;;;;14.43;12.10;;;12.60;73.80;;;;;;5052876;28;20515;-74
2022/01/16 11:10:27;;;;;;;15.17;12.30;;;13.10;71.80;;;;;;5055711;28;20450;-71
2022/01/16 11:12:55;;;;;;;18.00;13.03;;;13.60;67.90;;;;;;5059019;28;20477;-72
2022/01/16 11:15:25;;;;;;;16.53;12.83;;;13.70;66.60;;;;;;5059133;28;20457;-70
2022/01/16 11:17:52;;;;;;;17.00;12.33;;;13.80;64.20;;;;;;5060926;28;20453;-74
2022/01/16 11:20:26;;;;;;;17.17;12.67;;;13.30;65.00;;;;;;5058800;28;20457;-72
2022/01/16 11:23:01;;;;;;;18.77;12.83;;;13.40;65.80;;;;;;5052624;28;20490;-70
2022/01/16 11:25:33;;;;;;;22.43;13.30;;;13.80;65.80;;;;;;5052683;28;20738;-72
2022/01/16 11:28:10;;;;;;;18.73;13.97;;;14.10;63.20;;;;;;5052493;28;20508;-73
2022/01/16 11:30:41;;;;;;;16.87;13.03;;;14.10;63.00;;;;;;5052305;28;20457;-70
2022/01/16 11:33:09;;;;;;;16.63;14.20;;;14.20;62.70;;;;;;5052228;28;20501;-75
2022/01/16 11:35:42;;;;;;;15.97;13.17;;;14.40;61.60;;;;;;5052475;28;20866;-72
2022/01/16 11:38:10;;;;;;;18.90;14.10;;;14.50;62.00;;;;;;5052152;28;20942;-74
2022/01/16 11:40:44;;;;;;;19.33;14.37;;;14.90;59.90;;;;;;5052076;28;21030;-74
2022/01/16 11:43:30;;;;;;;16.93;13.73;;;14.90;59.80;;;;;;5052340;28;20510;-74
2022/01/16 11:46:11;;;;;;;19.13;14.77;;;14.90;58.30;;;;;;5051756;28;20458;-72
2022/01/16 11:48:44;;;;;;;17.80;14.03;;;14.60;58.20;;;;;;5051783;28;20472;-74
2022/01/16 11:51:52;;;;;;;19.63;14.43;;;14.40;59.00;;;;;;5052040;28;20946;-71
2022/01/16 11:54:27;;;;;;;17.70;15.57;;;14.00;58.50;;;;;;5040977;28;20500;-71
2022/01/16 11:57:00;;;;;;;16.87;12.97;;;13.90;59.20;;;;;;5051839;28;20801;-76
2022/01/16 11:59:29;;;;;;;19.50;13.87;;;14.00;59.10;;;;;;5051638;28;20500;-75
2022/01/16 12:01:59;;;;;;;19.67;14.30;;;14.40;59.40;;;;;;5051027;28;20493;-74
2022/01/16 12:04:48;;;;;;;20.33;14.50;;;14.80;58.50;;;;;;5051772;28;20540;-74
2022/01/16 12:07:48;;;;;;;19.87;13.87;;;15.30;57.10;;;;;;5051670;28;20540;-75
2022/01/16 12:10:39;;;;;;;17.60;14.77;;;15.00;56.40;;;;;;5051833;28;20540;-73
2022/01/16 12:13:24;;;;;;;18.17;14.00;;;14.80;57.00;;;;;;5051378;28;20482;-73
2022/01/16 12:15:51;;;;;;;17.57;14.50;;;15.20;57.10;;;;;;5050981;28;20442;-76
2022/01/16 12:21:33;;;;;;;20.60;15.00;;;15.50;55.20;;;;;;5086366;27;20546;-76
2022/01/16 12:24:00;;;;;;;19.10;14.67;;;15.50;55.10;;;;;;5087074;28;20965;-75
2022/01/16 12:26:34;;;;;;;19.67;15.90;;;15.50;54.90;;;;;;5086743;28;20811;-75
2022/01/16 12:29:01;;;;;;;21.10;14.07;;;15.80;54.90;;;;;;5086903;28;20452;-75
2022/01/16 12:31:34;;;;;;;18.60;14.83;;;16.10;53.90;;;;;;5085944;28;20468;-69
2022/01/16 12:34:01;;;;;;;16.07;14.37;;;16.40;54.50;;;;;;5086309;28;20556;-74
2022/01/16 12:36:35;;;;;;;20.47;15.80;;;16.60;53.20;;;;;;5086783;28;20463;-73
2022/01/16 12:39:06;;;;;;;18.37;15.43;;;16.70;52.90;;;;;;5086509;28;20463;-75
2022/01/16 12:41:43;;;;;;;19.37;16.20;;;16.60;53.40;;;;;;5086566;28;20491;-76
2022/01/16 12:44:13;;;;;;;18.47;16.47;;;16.60;52.90;;;;;;5086745;28;20839;-75
2022/01/16 12:46:42;;;;;;;20.70;15.83;;;16.70;52.20;;;;;;5086588;28;20581;-79
2022/01/16 12:49:13;;;;;;;22.30;16.27;;;16.90;51.80;;;;;;5086371;28;20456;-76
2022/01/16 12:51:44;;;;;;;17.90;14.63;;;16.80;51.60;;;;;;5086094;28;20452;-72
2022/01/16 12:54:13;;;;;;;18.57;15.80;;;16.80;51.30;;;;;;5086220;28;20916;-71
2022/01/16 12:56:43;;;;;;;17.83;15.10;;;16.80;51.50;;;;;;5086132;28;20537;-71
2022/01/16 12:59:17;;;;;;;16.90;13.90;;;16.90;51.30;;;;;;5086248;28;20444;-70
2022/01/16 13:01:47;;;;;;;18.87;15.70;;;16.70;51.00;;;;;;5071275;28;20486;-72
2022/01/16 13:04:28;;;;;;;24.53;17.40;;;16.90;51.00;;;;;;5065434;28;20460;-75
2022/01/16 13:06:58;;;;;;;22.30;17.60;;;17.00;50.90;;;;;;5065675;28;20934;-71
2022/01/16 13:09:26;;;;;;;23.80;17.70;;;17.20;50.30;;;;;;5065448;28;20445;-71
2022/01/16 13:11:56;;;;;;;19.80;15.83;;;17.40;50.10;;;;;;5064898;28;20464;-71
2022/01/16 13:14:25;;;;;;;25.37;19.57;;;17.50;49.90;;;;;;5065078;28;20488;-71
2022/01/16 13:16:54;;;;;;;23.40;17.27;;;17.70;49.40;;;;;;5065347;28;20578;-81
2022/01/16 13:19:24;;;;;;;27.17;19.77;;;17.70;49.30;;;;;;5065179;28;20500;-81
2022/01/16 13:22:01;;;;;;;22.00;18.00;;;17.60;49.10;;;;;;5065780;28;20449;-83
2022/01/16 13:24:33;;;;;;;21.97;17.80;;;17.50;49.00;;;;;;5065183;28;20759;-80
2022/01/16 13:27:01;;;;;;;21.57;17.80;;;17.50;49.80;;;;;;5065612;28;20519;-78
2022/01/16 13:29:28;;;;;;;27.77;21.07;;;17.70;49.00;;;;;;5065656;28;20457;-72
2022/01/16 13:31:56;;;;;;;23.90;18.53;;;17.80;48.40;;;;;;5055405;28;20458;-74
2022/01/16 13:34:38;;;;;;;22.40;17.33;;;17.70;48.60;;;;;;5052138;28;20450;-75